sensor_id;sensor_type;location;lat;lon;timestamp;P1;durP1;ratioP1;P2;durP2;ratioP2
7669;SDS011;3877;42.562;27.636;2024-03-17T00:01:02;40.20;;;24.13;;
7669;SDS011;3877;42.562;27.636;2024-03-17T00:03:29;41.20;;;24.63;;
7669;SDS011;3877;42.562;27.636;2024-03-17T00:05:57;37.93;;;23.93;;
7669;SDS011;3877;42.562;27.636;2024-03-17T00:08:24;42.87;;;25.13;;
7669;SDS011;3877;42.562;27.636;2024-03-17T00:10:50;45.93;;;26.17;;
7669;SDS011;3877;42.562;27.636;2024-03-17T00:13:18;39.83;;;23.30;;
7669;SDS011;3877;42.562;27.636;2024-03-17T00:15:44;44.97;;;24.93;;
7669;SDS011;3877;42.562;27.636;2024-03-17T00:18:11;40.77;;;24.37;;
7669;SDS011;3877;42.562;27.636;2024-03-17T00:20:37;44.30;;;25.50;;
7669;SDS011;3877;42.562;27.636;2024-03-17T00:23:06;43.93;;;25.70;;
7669;SDS011;3877;42.562;27.636;2024-03-17T00:25:33;42.10;;;25.33;;
7669;SDS011;3877;42.562;27.636;2024-03-17T00:28:00;44.97;;;25.27;;
7669;SDS011;3877;42.562;27.636;2024-03-17T00:30:26;40.20;;;24.17;;
7669;SDS011;3877;42.562;27.636;2024-03-17T00:32:53;39.27;;;23.90;;
7669;SDS011;3877;42.562;27.636;2024-03-17T00:35:19;42.67;;;23.60;;
7669;SDS011;3877;42.562;27.636;2024-03-17T00:37:47;39.53;;;22.60;;
7669;SDS011;3877;42.562;27.636;2024-03-17T00:40:15;41.30;;;24.10;;
7669;SDS011;3877;42.562;27.636;2024-03-17T00:42:42;41.20;;;24.13;;
7669;SDS011;3877;42.562;27.636;2024-03-17T00:45:08;40.47;;;23.93;;
7669;SDS011;3877;42.562;27.636;2024-03-17T00:47:36;43.17;;;24.30;;
7669;SDS011;3877;42.562;27.636;2024-03-17T00:50:02;47.87;;;25.27;;
7669;SDS011;3877;42.562;27.636;2024-03-17T00:52:29;43.93;;;23.83;;
7669;SDS011;3877;42.562;27.636;2024-03-17T00:54:55;43.93;;;23.67;;
7669;SDS011;3877;42.562;27.636;2024-03-17T00:57:23;43.30;;;24.40;;
7669;SDS011;3877;42.562;27.636;2024-03-17T00:59:49;45.53;;;25.27;;
7669;SDS011;3877;42.562;27.636;2024-03-17T01:02:17;43.40;;;23.63;;
7669;SDS011;3877;42.562;27.636;2024-03-17T01:04:46;38.00;;;22.23;;
7669;SDS011;3877;42.562;27.636;2024-03-17T01:07:12;42.13;;;23.80;;
7669;SDS011;3877;42.562;27.636;2024-03-17T01:09:39;39.20;;;23.43;;
7669;SDS011;3877;42.562;27.636;2024-03-17T01:12:05;40.17;;;23.33;;
7669;SDS011;3877;42.562;27.636;2024-03-17T01:14:34;40.20;;;23.07;;
7669;SDS011;3877;42.562;27.636;2024-03-17T01:17:00;40.17;;;23.60;;
7669;SDS011;3877;42.562;27.636;2024-03-17T01:19:30;37.57;;;21.87;;
7669;SDS011;3877;42.562;27.636;2024-03-17T01:21:56;38.97;;;22.97;;
7669;SDS011;3877;42.562;27.636;2024-03-17T01:24:23;41.00;;;21.87;;
7669;SDS011;3877;42.562;27.636;2024-03-17T01:26:50;38.60;;;22.37;;
7669;SDS011;3877;42.562;27.636;2024-03-17T01:29:18;38.13;;;21.97;;
7669;SDS011;3877;42.562;27.636;2024-03-17T01:31:46;35.43;;;20.47;;
7669;SDS011;3877;42.562;27.636;2024-03-17T01:34:13;34.77;;;20.27;;
7669;SDS011;3877;42.562;27.636;2024-03-17T01:36:39;33.93;;;19.67;;
7669;SDS011;3877;42.562;27.636;2024-03-17T01:39:06;37.43;;;20.70;;
7669;SDS011;3877;42.562;27.636;2024-03-17T01:41:32;34.53;;;19.87;;
7669;SDS011;3877;42.562;27.636;2024-03-17T01:43:59;34.63;;;19.73;;
7669;SDS011;3877;42.562;27.636;2024-03-17T01:46:25;33.60;;;21.40;;
7669;SDS011;3877;42.562;27.636;2024-03-17T01:48:54;36.20;;;21.03;;
7669;SDS011;3877;42.562;27.636;2024-03-17T01:51:20;36.93;;;21.07;;
7669;SDS011;3877;42.562;27.636;2024-03-17T01:53:49;45.00;;;23.57;;
7669;SDS011;3877;42.562;27.636;2024-03-17T01:56:15;41.63;;;21.83;;
7669;SDS011;3877;42.562;27.636;2024-03-17T01:58:43;41.03;;;22.90;;
7669;SDS011;3877;42.562;27.636;2024-03-17T02:01:09;37.90;;;21.63;;
7669;SDS011;3877;42.562;27.636;2024-03-17T02:03:36;42.70;;;23.33;;
7669;SDS011;3877;42.562;27.636;2024-03-17T02:06:04;41.27;;;23.47;;
7669;SDS011;3877;42.562;27.636;2024-03-17T02:08:45;45.07;;;24.57;;
7669;SDS011;3877;42.562;27.636;2024-03-17T02:11:22;43.77;;;24.23;;
7669;SDS011;3877;42.562;27.636;2024-03-17T02:13:49;47.30;;;26.30;;
7669;SDS011;3877;42.562;27.636;2024-03-17T02:16:16;46.87;;;26.87;;
7669;SDS011;3877;42.562;27.636;2024-03-17T02:18:44;47.23;;;26.13;;
7669;SDS011;3877;42.562;27.636;2024-03-17T02:21:13;44.90;;;25.13;;
7669;SDS011;3877;42.562;27.636;2024-03-17T02:23:40;42.53;;;24.73;;
7669;SDS011;3877;42.562;27.636;2024-03-17T02:26:07;45.63;;;26.17;;
7669;SDS011;3877;42.562;27.636;2024-03-17T02:28:40;53.47;;;28.60;;
7669;SDS011;3877;42.562;27.636;2024-03-17T02:31:08;49.23;;;27.10;;
7669;SDS011;3877;42.562;27.636;2024-03-17T02:33:35;46.30;;;26.67;;
7669;SDS011;3877;42.562;27.636;2024-03-17T02:36:02;47.40;;;28.87;;
7669;SDS011;3877;42.562;27.636;2024-03-17T02:38:29;52.87;;;31.33;;
7669;SDS011;3877;42.562;27.636;2024-03-17T02:41:15;70.10;;;37.90;;
7669;SDS011;3877;42.562;27.636;2024-03-17T02:43:42;66.00;;;36.80;;
7669;SDS011;3877;42.562;27.636;2024-03-17T02:46:10;61.33;;;34.00;;
7669;SDS011;3877;42.562;27.636;2024-03-17T02:48:38;56.90;;;31.00;;
7669;SDS011;3877;42.562;27.636;2024-03-17T02:51:10;53.60;;;30.73;;
7669;SDS011;3877;42.562;27.636;2024-03-17T02:53:37;60.77;;;30.77;;
7669;SDS011;3877;42.562;27.636;2024-03-17T02:56:04;47.30;;;27.60;;
7669;SDS011;3877;42.562;27.636;2024-03-17T02:58:33;50.63;;;28.70;;
7669;SDS011;3877;42.562;27.636;2024-03-17T03:01:01;55.80;;;29.97;;
7669;SDS011;3877;42.562;27.636;2024-03-17T03:03:28;49.67;;;28.23;;
7669;SDS011;3877;42.562;27.636;2024-03-17T03:05:55;47.43;;;26.87;;
7669;SDS011;3877;42.562;27.636;2024-03-17T03:08:23;47.97;;;26.63;;
7669;SDS011;3877;42.562;27.636;2024-03-17T03:10:51;46.17;;;27.77;;
7669;SDS011;3877;42.562;27.636;2024-03-17T03:13:19;46.40;;;26.37;;
7669;SDS011;3877;42.562;27.636;2024-03-17T03:15:48;47.47;;;28.13;;
7669;SDS011;3877;42.562;27.636;2024-03-17T03:18:15;49.63;;;28.00;;
7669;SDS011;3877;42.562;27.636;2024-03-17T03:20:43;46.77;;;27.77;;
7669;SDS011;3877;42.562;27.636;2024-03-17T03:23:10;42.77;;;25.00;;
7669;SDS011;3877;42.562;27.636;2024-03-17T03:25:37;43.93;;;26.00;;
7669;SDS011;3877;42.562;27.636;2024-03-17T03:28:05;47.17;;;26.70;;
7669;SDS011;3877;42.562;27.636;2024-03-17T03:30:35;51.90;;;28.23;;
7669;SDS011;3877;42.562;27.636;2024-03-17T03:33:03;76.13;;;32.67;;
7669;SDS011;3877;42.562;27.636;2024-03-17T03:35:31;80.00;;;34.60;;
7669;SDS011;3877;42.562;27.636;2024-03-17T03:37:58;371.03;;;42.07;;
7669;SDS011;3877;42.562;27.636;2024-03-17T03:40:26;176.77;;;37.73;;
7669;SDS011;3877;42.562;27.636;2024-03-17T03:42:54;570.90;;;47.83;;
7669;SDS011;3877;42.562;27.636;2024-03-17T03:45:21;474.00;;;46.23;;
7669;SDS011;3877;42.562;27.636;2024-03-17T03:47:49;506.83;;;46.67;;
7669;SDS011;3877;42.562;27.636;2024-03-17T03:50:18;172.47;;;37.37;;
7669;SDS011;3877;42.562;27.636;2024-03-17T03:52:46;395.60;;;40.37;;
7669;SDS011;3877;42.562;27.636;2024-03-17T03:55:16;391.93;;;42.17;;
7669;SDS011;3877;42.562;27.636;2024-03-17T03:57:43;367.03;;;43.70;;
7669;SDS011;3877;42.562;27.636;2024-03-17T04:00:12;345.13;;;41.27;;
7669;SDS011;3877;42.562;27.636;2024-03-17T04:02:39;308.83;;;41.50;;
7669;SDS011;3877;42.562;27.636;2024-03-17T04:05:07;467.03;;;44.93;;
7669;SDS011;3877;42.562;27.636;2024-03-17T04:07:35;459.57;;;44.13;;
7669;SDS011;3877;42.562;27.636;2024-03-17T04:10:03;478.17;;;45.40;;
7669;SDS011;3877;42.562;27.636;2024-03-17T04:12:30;368.33;;;44.37;;
7669;SDS011;3877;42.562;27.636;2024-03-17T04:14:58;262.30;;;40.77;;
7669;SDS011;3877;42.562;27.636;2024-03-17T04:17:25;516.60;;;49.03;;
7669;SDS011;3877;42.562;27.636;2024-03-17T04:19:52;284.87;;;43.20;;
7669;SDS011;3877;42.562;27.636;2024-03-17T04:22:20;280.63;;;45.57;;
7669;SDS011;3877;42.562;27.636;2024-03-17T04:24:49;333.33;;;44.73;;
7669;SDS011;3877;42.562;27.636;2024-03-17T04:27:18;199.60;;;44.90;;
7669;SDS011;3877;42.562;27.636;2024-03-17T04:29:46;106.63;;;44.43;;
7669;SDS011;3877;42.562;27.636;2024-03-17T04:32:13;108.73;;;43.57;;
7669;SDS011;3877;42.562;27.636;2024-03-17T04:34:40;99.53;;;44.37;;
7669;SDS011;3877;42.562;27.636;2024-03-17T04:37:08;91.33;;;43.03;;
7669;SDS011;3877;42.562;27.636;2024-03-17T04:39:36;93.73;;;42.90;;
7669;SDS011;3877;42.562;27.636;2024-03-17T04:42:06;96.27;;;39.30;;
7669;SDS011;3877;42.562;27.636;2024-03-17T04:44:33;106.23;;;43.13;;
7669;SDS011;3877;42.562;27.636;2024-03-17T04:46:59;94.37;;;41.00;;
7669;SDS011;3877;42.562;27.636;2024-03-17T04:49:28;97.00;;;42.60;;
7669;SDS011;3877;42.562;27.636;2024-03-17T04:51:55;99.80;;;41.60;;
7669;SDS011;3877;42.562;27.636;2024-03-17T04:54:22;96.70;;;43.13;;
7669;SDS011;3877;42.562;27.636;2024-03-17T04:56:49;102.47;;;44.47;;
7669;SDS011;3877;42.562;27.636;2024-03-17T04:59:18;104.00;;;42.67;;
7669;SDS011;3877;42.562;27.636;2024-03-17T05:01:45;107.23;;;41.83;;
7669;SDS011;3877;42.562;27.636;2024-03-17T05:04:14;113.30;;;40.17;;
7669;SDS011;3877;42.562;27.636;2024-03-17T05:06:41;104.90;;;38.23;;
7669;SDS011;3877;42.562;27.636;2024-03-17T05:09:11;94.93;;;38.40;;
7669;SDS011;3877;42.562;27.636;2024-03-17T05:11:39;93.13;;;36.33;;
7669;SDS011;3877;42.562;27.636;2024-03-17T05:14:07;105.40;;;35.80;;
7669;SDS011;3877;42.562;27.636;2024-03-17T05:16:35;103.73;;;35.00;;
7669;SDS011;3877;42.562;27.636;2024-03-17T05:19:03;88.20;;;32.80;;
7669;SDS011;3877;42.562;27.636;2024-03-17T05:21:30;91.13;;;34.63;;
7669;SDS011;3877;42.562;27.636;2024-03-17T05:23:57;116.30;;;35.37;;
7669;SDS011;3877;42.562;27.636;2024-03-17T05:26:24;105.83;;;34.93;;
7669;SDS011;3877;42.562;27.636;2024-03-17T05:28:51;145.57;;;35.77;;
7669;SDS011;3877;42.562;27.636;2024-03-17T05:31:18;114.90;;;37.57;;
7669;SDS011;3877;42.562;27.636;2024-03-17T05:33:48;112.23;;;36.93;;
7669;SDS011;3877;42.562;27.636;2024-03-17T05:36:17;137.07;;;38.10;;
7669;SDS011;3877;42.562;27.636;2024-03-17T05:38:45;121.07;;;38.30;;
7669;SDS011;3877;42.562;27.636;2024-03-17T05:41:12;101.00;;;35.07;;
7669;SDS011;3877;42.562;27.636;2024-03-17T05:43:39;201.87;;;37.87;;
7669;SDS011;3877;42.562;27.636;2024-03-17T05:46:06;221.60;;;38.23;;
7669;SDS011;3877;42.562;27.636;2024-03-17T05:48:34;129.10;;;35.63;;
7669;SDS011;3877;42.562;27.636;2024-03-17T05:51:04;102.07;;;35.50;;
7669;SDS011;3877;42.562;27.636;2024-03-17T05:53:31;94.47;;;35.50;;
7669;SDS011;3877;42.562;27.636;2024-03-17T05:55:59;88.73;;;35.63;;
7669;SDS011;3877;42.562;27.636;2024-03-17T05:58:26;92.27;;;37.57;;
7669;SDS011;3877;42.562;27.636;2024-03-17T06:00:53;87.40;;;35.43;;
7669;SDS011;3877;42.562;27.636;2024-03-17T06:03:20;89.83;;;37.63;;
7669;SDS011;3877;42.562;27.636;2024-03-17T06:05:47;83.83;;;36.30;;
7669;SDS011;3877;42.562;27.636;2024-03-17T06:08:16;81.50;;;32.43;;
7669;SDS011;3877;42.562;27.636;2024-03-17T06:10:44;74.93;;;31.10;;
7669;SDS011;3877;42.562;27.636;2024-03-17T06:13:11;77.70;;;29.67;;
7669;SDS011;3877;42.562;27.636;2024-03-17T06:15:40;62.00;;;27.20;;
7669;SDS011;3877;42.562;27.636;2024-03-17T06:18:08;71.33;;;28.23;;
7669;SDS011;3877;42.562;27.636;2024-03-17T06:20:39;57.70;;;26.53;;
7669;SDS011;3877;42.562;27.636;2024-03-17T06:23:07;56.93;;;25.87;;
7669;SDS011;3877;42.562;27.636;2024-03-17T06:25:38;63.23;;;26.97;;
7669;SDS011;3877;42.562;27.636;2024-03-17T06:28:05;52.40;;;24.87;;
7669;SDS011;3877;42.562;27.636;2024-03-17T06:30:32;51.60;;;25.30;;
7669;SDS011;3877;42.562;27.636;2024-03-17T06:33:01;48.77;;;24.37;;
7669;SDS011;3877;42.562;27.636;2024-03-17T06:35:28;53.37;;;24.60;;
7669;SDS011;3877;42.562;27.636;2024-03-17T06:37:58;46.90;;;23.53;;
7669;SDS011;3877;42.562;27.636;2024-03-17T06:40:26;44.87;;;23.70;;
7669;SDS011;3877;42.562;27.636;2024-03-17T06:42:54;49.03;;;25.27;;
7669;SDS011;3877;42.562;27.636;2024-03-17T06:45:21;63.73;;;24.87;;
7669;SDS011;3877;42.562;27.636;2024-03-17T06:47:49;43.70;;;23.93;;
7669;SDS011;3877;42.562;27.636;2024-03-17T06:50:16;48.13;;;23.50;;
7669;SDS011;3877;42.562;27.636;2024-03-17T06:52:43;45.30;;;25.37;;
7669;SDS011;3877;42.562;27.636;2024-03-17T06:55:11;47.47;;;24.77;;
7669;SDS011;3877;42.562;27.636;2024-03-17T06:57:38;41.33;;;23.40;;
7669;SDS011;3877;42.562;27.636;2024-03-17T07:00:11;41.07;;;22.63;;
7669;SDS011;3877;42.562;27.636;2024-03-17T07:02:39;39.53;;;22.47;;
7669;SDS011;3877;42.562;27.636;2024-03-17T07:05:11;37.73;;;21.70;;
7669;SDS011;3877;42.562;27.636;2024-03-17T07:07:39;41.47;;;22.20;;
7669;SDS011;3877;42.562;27.636;2024-03-17T07:10:06;43.77;;;21.90;;
7669;SDS011;3877;42.562;27.636;2024-03-17T07:12:34;36.80;;;20.33;;
7669;SDS011;3877;42.562;27.636;2024-03-17T07:15:01;36.80;;;22.40;;
7669;SDS011;3877;42.562;27.636;2024-03-17T07:17:29;34.90;;;20.47;;
7669;SDS011;3877;42.562;27.636;2024-03-17T07:19:56;38.13;;;20.73;;
7669;SDS011;3877;42.562;27.636;2024-03-17T07:22:23;41.23;;;25.43;;
7669;SDS011;3877;42.562;27.636;2024-03-17T07:24:51;36.37;;;21.13;;
7669;SDS011;3877;42.562;27.636;2024-03-17T07:27:21;33.47;;;19.80;;
7669;SDS011;3877;42.562;27.636;2024-03-17T07:29:48;71.43;;;40.87;;
7669;SDS011;3877;42.562;27.636;2024-03-17T07:32:16;36.23;;;21.80;;
7669;SDS011;3877;42.562;27.636;2024-03-17T07:34:44;35.30;;;21.50;;
7669;SDS011;3877;42.562;27.636;2024-03-17T07:37:11;37.93;;;22.07;;
7669;SDS011;3877;42.562;27.636;2024-03-17T07:39:38;34.33;;;20.27;;
7669;SDS011;3877;42.562;27.636;2024-03-17T07:42:05;38.13;;;23.23;;
7669;SDS011;3877;42.562;27.636;2024-03-17T07:44:32;35.57;;;20.13;;
7669;SDS011;3877;42.562;27.636;2024-03-17T07:47:00;48.60;;;27.17;;
7669;SDS011;3877;42.562;27.636;2024-03-17T07:49:29;42.73;;;25.10;;
7669;SDS011;3877;42.562;27.636;2024-03-17T07:51:58;35.30;;;22.47;;
7669;SDS011;3877;42.562;27.636;2024-03-17T07:54:25;32.63;;;21.33;;
7669;SDS011;3877;42.562;27.636;2024-03-17T07:56:53;34.10;;;22.47;;
7669;SDS011;3877;42.562;27.636;2024-03-17T07:59:20;53.93;;;31.53;;
7669;SDS011;3877;42.562;27.636;2024-03-17T08:01:48;39.10;;;24.70;;
7669;SDS011;3877;42.562;27.636;2024-03-17T08:04:15;31.80;;;21.00;;
7669;SDS011;3877;42.562;27.636;2024-03-17T08:06:42;32.63;;;21.30;;
7669;SDS011;3877;42.562;27.636;2024-03-17T08:09:11;38.83;;;23.20;;
7669;SDS011;3877;42.562;27.636;2024-03-17T08:11:38;38.73;;;22.97;;
7669;SDS011;3877;42.562;27.636;2024-03-17T08:14:09;37.73;;;22.67;;
7669;SDS011;3877;42.562;27.636;2024-03-17T08:16:36;61.73;;;34.60;;
7669;SDS011;3877;42.562;27.636;2024-03-17T08:19:03;49.87;;;28.43;;
7669;SDS011;3877;42.562;27.636;2024-03-17T08:21:30;40.57;;;25.67;;
7669;SDS011;3877;42.562;27.636;2024-03-17T08:23:57;39.87;;;24.73;;
7669;SDS011;3877;42.562;27.636;2024-03-17T08:26:26;63.07;;;32.83;;
7669;SDS011;3877;42.562;27.636;2024-03-17T08:28:53;70.97;;;36.53;;
7669;SDS011;3877;42.562;27.636;2024-03-17T08:31:20;35.77;;;23.53;;
7669;SDS011;3877;42.562;27.636;2024-03-17T08:33:47;35.97;;;23.57;;
7669;SDS011;3877;42.562;27.636;2024-03-17T08:36:16;38.07;;;25.00;;
7669;SDS011;3877;42.562;27.636;2024-03-17T08:38:43;35.37;;;23.03;;
7669;SDS011;3877;42.562;27.636;2024-03-17T08:41:10;36.53;;;22.80;;
7669;SDS011;3877;42.562;27.636;2024-03-17T08:43:40;37.10;;;23.93;;
7669;SDS011;3877;42.562;27.636;2024-03-17T08:46:08;38.67;;;26.53;;
7669;SDS011;3877;42.562;27.636;2024-03-17T08:48:37;84.53;;;51.13;;
7669;SDS011;3877;42.562;27.636;2024-03-17T08:51:05;48.37;;;29.13;;
7669;SDS011;3877;42.562;27.636;2024-03-17T08:53:32;42.47;;;25.70;;
7669;SDS011;3877;42.562;27.636;2024-03-17T08:55:59;40.50;;;26.53;;
7669;SDS011;3877;42.562;27.636;2024-03-17T08:58:27;38.77;;;24.40;;
7669;SDS011;3877;42.562;27.636;2024-03-17T09:00:55;45.27;;;27.37;;
7669;SDS011;3877;42.562;27.636;2024-03-17T09:03:22;43.03;;;26.60;;
7669;SDS011;3877;42.562;27.636;2024-03-17T09:05:51;43.43;;;25.40;;
7669;SDS011;3877;42.562;27.636;2024-03-17T09:08:20;40.97;;;26.40;;
7669;SDS011;3877;42.562;27.636;2024-03-17T09:10:48;40.70;;;24.80;;
7669;SDS011;3877;42.562;27.636;2024-03-17T09:13:15;35.10;;;22.07;;
7669;SDS011;3877;42.562;27.636;2024-03-17T09:15:49;30.57;;;20.57;;
7669;SDS011;3877;42.562;27.636;2024-03-17T09:18:18;28.80;;;19.30;;
7669;SDS011;3877;42.562;27.636;2024-03-17T09:20:45;34.83;;;20.60;;
7669;SDS011;3877;42.562;27.636;2024-03-17T09:23:12;30.63;;;18.60;;
7669;SDS011;3877;42.562;27.636;2024-03-17T09:25:39;27.33;;;18.30;;
7669;SDS011;3877;42.562;27.636;2024-03-17T09:28:06;24.83;;;17.00;;
7669;SDS011;3877;42.562;27.636;2024-03-17T09:30:33;21.87;;;15.30;;
7669;SDS011;3877;42.562;27.636;2024-03-17T09:33:00;25.60;;;16.63;;
7669;SDS011;3877;42.562;27.636;2024-03-17T09:35:31;26.47;;;18.43;;
7669;SDS011;3877;42.562;27.636;2024-03-17T09:37:58;19.90;;;14.47;;
7669;SDS011;3877;42.562;27.636;2024-03-17T09:40:26;19.20;;;13.27;;
7669;SDS011;3877;42.562;27.636;2024-03-17T09:42:53;17.33;;;11.80;;
7669;SDS011;3877;42.562;27.636;2024-03-17T09:45:20;16.87;;;12.77;;
7669;SDS011;3877;42.562;27.636;2024-03-17T09:47:48;20.70;;;14.10;;
7669;SDS011;3877;42.562;27.636;2024-03-17T09:50:15;21.67;;;14.27;;
7669;SDS011;3877;42.562;27.636;2024-03-17T09:52:45;30.83;;;14.97;;
7669;SDS011;3877;42.562;27.636;2024-03-17T09:55:14;22.93;;;15.63;;
7669;SDS011;3877;42.562;27.636;2024-03-17T09:57:42;19.40;;;14.03;;
7669;SDS011;3877;42.562;27.636;2024-03-17T10:00:10;27.07;;;15.53;;
7669;SDS011;3877;42.562;27.636;2024-03-17T10:02:41;24.13;;;15.27;;
7669;SDS011;3877;42.562;27.636;2024-03-17T10:05:17;23.53;;;15.30;;
7669;SDS011;3877;42.562;27.636;2024-03-17T10:07:46;26.33;;;16.47;;
7669;SDS011;3877;42.562;27.636;2024-03-17T10:10:13;25.20;;;17.60;;
7669;SDS011;3877;42.562;27.636;2024-03-17T10:12:41;28.53;;;17.20;;
7669;SDS011;3877;42.562;27.636;2024-03-17T10:15:10;25.33;;;17.10;;
7669;SDS011;3877;42.562;27.636;2024-03-17T10:17:38;28.17;;;17.47;;
7669;SDS011;3877;42.562;27.636;2024-03-17T10:20:11;31.03;;;19.07;;
7669;SDS011;3877;42.562;27.636;2024-03-17T10:22:41;29.03;;;18.27;;
7669;SDS011;3877;42.562;27.636;2024-03-17T10:25:11;27.37;;;18.30;;
7669;SDS011;3877;42.562;27.636;2024-03-17T10:27:43;27.30;;;18.53;;
7669;SDS011;3877;42.562;27.636;2024-03-17T10:30:13;27.02;;;18.17;;
7669;SDS011;3877;42.562;27.636;2024-03-17T10:32:44;29.90;;;18.03;;
7669;SDS011;3877;42.562;27.636;2024-03-17T10:35:24;24.23;;;17.87;;
7669;SDS011;3877;42.562;27.636;2024-03-17T10:37:55;25.53;;;17.90;;
7669;SDS011;3877;42.562;27.636;2024-03-17T10:40:25;24.83;;;17.47;;
7669;SDS011;3877;42.562;27.636;2024-03-17T10:42:52;29.73;;;19.03;;
7669;SDS011;3877;42.562;27.636;2024-03-17T10:45:19;20.97;;;16.03;;
7669;SDS011;3877;42.562;27.636;2024-03-17T10:47:47;23.97;;;16.80;;
7669;SDS011;3877;42.562;27.636;2024-03-17T10:50:16;25.10;;;17.23;;
7669;SDS011;3877;42.562;27.636;2024-03-17T10:52:44;25.77;;;17.83;;
7669;SDS011;3877;42.562;27.636;2024-03-17T10:55:25;26.07;;;16.90;;
7669;SDS011;3877;42.562;27.636;2024-03-17T10:57:53;29.17;;;20.50;;
7669;SDS011;3877;42.562;27.636;2024-03-17T11:00:23;27.43;;;19.07;;
7669;SDS011;3877;42.562;27.636;2024-03-17T11:02:54;25.67;;;18.27;;
7669;SDS011;3877;42.562;27.636;2024-03-17T11:05:22;31.90;;;19.50;;
7669;SDS011;3877;42.562;27.636;2024-03-17T11:07:52;31.17;;;19.93;;
7669;SDS011;3877;42.562;27.636;2024-03-17T11:10:23;26.10;;;18.03;;
7669;SDS011;3877;42.562;27.636;2024-03-17T11:12:53;26.73;;;18.53;;
7669;SDS011;3877;42.562;27.636;2024-03-17T11:15:34;25.03;;;16.77;;
7669;SDS011;3877;42.562;27.636;2024-03-17T11:23:54;27.20;;;19.27;;
7669;SDS011;3877;42.562;27.636;2024-03-17T11:26:26;26.77;;;19.10;;
7669;SDS011;3877;42.562;27.636;2024-03-17T11:28:55;29.07;;;17.30;;
7669;SDS011;3877;42.562;27.636;2024-03-17T11:31:36;27.90;;;19.97;;
7669;SDS011;3877;42.562;27.636;2024-03-17T11:34:06;31.23;;;19.53;;
7669;SDS011;3877;42.562;27.636;2024-03-17T11:36:35;25.30;;;17.67;;
7669;SDS011;3877;42.562;27.636;2024-03-17T11:39:02;24.27;;;17.50;;
7669;SDS011;3877;42.562;27.636;2024-03-17T11:41:35;37.40;;;18.93;;
7669;SDS011;3877;42.562;27.636;2024-03-17T11:44:21;33.00;;;19.73;;
7669;SDS011;3877;42.562;27.636;2024-03-17T11:46:50;22.90;;;16.67;;
7669;SDS011;3877;42.562;27.636;2024-03-17T11:49:18;26.17;;;17.83;;
7669;SDS011;3877;42.562;27.636;2024-03-17T11:51:46;26.30;;;18.20;;
7669;SDS011;3877;42.562;27.636;2024-03-17T11:54:13;27.47;;;18.57;;
7669;SDS011;3877;42.562;27.636;2024-03-17T11:56:44;26.17;;;18.90;;
7669;SDS011;3877;42.562;27.636;2024-03-17T11:59:11;27.73;;;19.03;;
7669;SDS011;3877;42.562;27.636;2024-03-17T12:01:39;26.03;;;18.27;;
7669;SDS011;3877;42.562;27.636;2024-03-17T12:04:06;24.57;;;19.03;;
7669;SDS011;3877;42.562;27.636;2024-03-17T12:06:33;30.87;;;19.67;;
7669;SDS011;3877;42.562;27.636;2024-03-17T12:09:08;26.10;;;18.80;;
7669;SDS011;3877;42.562;27.636;2024-03-17T12:11:36;33.43;;;20.10;;
7669;SDS011;3877;42.562;27.636;2024-03-17T12:16:52;29.00;;;19.20;;
7669;SDS011;3877;42.562;27.636;2024-03-17T12:19:19;28.73;;;19.37;;
7669;SDS011;3877;42.562;27.636;2024-03-17T12:21:47;37.97;;;19.00;;
7669;SDS011;3877;42.562;27.636;2024-03-17T12:24:15;29.57;;;17.73;;
7669;SDS011;3877;42.562;27.636;2024-03-17T12:26:42;31.40;;;21.03;;
7669;SDS011;3877;42.562;27.636;2024-03-17T12:29:21;26.80;;;19.03;;
7669;SDS011;3877;42.562;27.636;2024-03-17T12:31:49;26.40;;;17.30;;
7669;SDS011;3877;42.562;27.636;2024-03-17T12:34:17;24.10;;;16.97;;
7669;SDS011;3877;42.562;27.636;2024-03-17T12:36:44;25.00;;;16.67;;
7669;SDS011;3877;42.562;27.636;2024-03-17T12:39:11;24.10;;;16.83;;
7669;SDS011;3877;42.562;27.636;2024-03-17T12:41:38;23.63;;;16.27;;
7669;SDS011;3877;42.562;27.636;2024-03-17T12:44:04;24.83;;;18.03;;
7669;SDS011;3877;42.562;27.636;2024-03-17T12:46:31;24.47;;;17.03;;
7669;SDS011;3877;42.562;27.636;2024-03-17T12:48:58;24.47;;;17.73;;
7669;SDS011;3877;42.562;27.636;2024-03-17T12:51:27;24.80;;;18.33;;
7669;SDS011;3877;42.562;27.636;2024-03-17T12:56:35;26.40;;;18.97;;
7669;SDS011;3877;42.562;27.636;2024-03-17T12:59:20;27.37;;;18.47;;
7669;SDS011;3877;42.562;27.636;2024-03-17T13:02:05;24.33;;;17.80;;
7669;SDS011;3877;42.562;27.636;2024-03-17T13:04:35;25.33;;;17.77;;
7669;SDS011;3877;42.562;27.636;2024-03-17T13:07:10;22.80;;;15.93;;
7669;SDS011;3877;42.562;27.636;2024-03-17T13:09:38;25.43;;;16.27;;
7669;SDS011;3877;42.562;27.636;2024-03-17T13:12:12;28.47;;;18.97;;
7669;SDS011;3877;42.562;27.636;2024-03-17T13:14:40;25.00;;;17.20;;
7669;SDS011;3877;42.562;27.636;2024-03-17T13:17:07;31.97;;;17.50;;
7669;SDS011;3877;42.562;27.636;2024-03-17T13:19:37;22.07;;;15.60;;
7669;SDS011;3877;42.562;27.636;2024-03-17T13:22:06;22.23;;;16.80;;
7669;SDS011;3877;42.562;27.636;2024-03-17T13:24:35;20.33;;;15.17;;
7669;SDS011;3877;42.562;27.636;2024-03-17T13:27:02;24.80;;;16.77;;
7669;SDS011;3877;42.562;27.636;2024-03-17T13:29:31;25.03;;;16.13;;
7669;SDS011;3877;42.562;27.636;2024-03-17T13:32:01;24.93;;;17.20;;
7669;SDS011;3877;42.562;27.636;2024-03-17T13:34:28;26.33;;;17.30;;
7669;SDS011;3877;42.562;27.636;2024-03-17T13:36:55;24.87;;;16.83;;
7669;SDS011;3877;42.562;27.636;2024-03-17T13:39:22;25.63;;;17.87;;
7669;SDS011;3877;42.562;27.636;2024-03-17T13:41:53;25.03;;;18.13;;
7669;SDS011;3877;42.562;27.636;2024-03-17T13:44:22;24.57;;;16.37;;
7669;SDS011;3877;42.562;27.636;2024-03-17T13:46:49;26.10;;;17.77;;
7669;SDS011;3877;42.562;27.636;2024-03-17T13:49:16;27.23;;;17.13;;
7669;SDS011;3877;42.562;27.636;2024-03-17T13:51:43;27.63;;;18.33;;
7669;SDS011;3877;42.562;27.636;2024-03-17T13:54:10;27.80;;;18.23;;
7669;SDS011;3877;42.562;27.636;2024-03-17T13:56:37;26.63;;;18.87;;
7669;SDS011;3877;42.562;27.636;2024-03-17T13:59:06;27.10;;;18.87;;
7669;SDS011;3877;42.562;27.636;2024-03-17T14:01:33;26.57;;;18.30;;
7669;SDS011;3877;42.562;27.636;2024-03-17T14:04:01;30.77;;;19.07;;
7669;SDS011;3877;42.562;27.636;2024-03-17T14:06:28;27.90;;;17.97;;
7669;SDS011;3877;42.562;27.636;2024-03-17T14:08:55;28.17;;;19.07;;
7669;SDS011;3877;42.562;27.636;2024-03-17T14:11:23;26.23;;;19.17;;
7669;SDS011;3877;42.562;27.636;2024-03-17T14:13:50;29.67;;;19.47;;
7669;SDS011;3877;42.562;27.636;2024-03-17T14:16:18;28.07;;;19.17;;
7669;SDS011;3877;42.562;27.636;2024-03-17T14:18:45;27.83;;;19.80;;
7669;SDS011;3877;42.562;27.636;2024-03-17T14:21:12;27.07;;;19.37;;
7669;SDS011;3877;42.562;27.636;2024-03-17T14:23:41;27.20;;;19.87;;
7669;SDS011;3877;42.562;27.636;2024-03-17T14:26:10;26.87;;;19.10;;
7669;SDS011;3877;42.562;27.636;2024-03-17T14:28:38;26.20;;;18.57;;
7669;SDS011;3877;42.562;27.636;2024-03-17T14:31:05;31.60;;;19.67;;
7669;SDS011;3877;42.562;27.636;2024-03-17T14:33:33;28.90;;;18.87;;
7669;SDS011;3877;42.562;27.636;2024-03-17T14:36:00;29.27;;;19.23;;
7669;SDS011;3877;42.562;27.636;2024-03-17T14:38:27;25.87;;;17.40;;
7669;SDS011;3877;42.562;27.636;2024-03-17T14:40:55;27.20;;;19.23;;
7669;SDS011;3877;42.562;27.636;2024-03-17T14:43:22;31.00;;;20.27;;
7669;SDS011;3877;42.562;27.636;2024-03-17T14:45:49;27.70;;;19.17;;
7669;SDS011;3877;42.562;27.636;2024-03-17T14:48:16;30.70;;;20.47;;
7669;SDS011;3877;42.562;27.636;2024-03-17T14:50:45;30.27;;;20.53;;